createdAt,value
2023-03-08T00:00:38.528Z,99103.88
2023-03-08T00:03:06.230Z,99106.75
2023-03-08T00:05:34.141Z,99106.19
2023-03-08T00:08:01.819Z,99100.00
2023-03-08T00:10:31.203Z,99107.16
2023-03-08T00:12:58.892Z,99111.63
2023-03-08T00:15:26.672Z,99106.50
2023-03-08T00:17:54.507Z,99112.16
2023-03-08T00:20:22.236Z,99118.75
2023-03-08T00:22:50.206Z,99119.56
2023-03-08T00:25:18.207Z,99110.34
2023-03-08T00:27:47.324Z,99109.81
2023-03-08T00:30:15.656Z,99111.25
2023-03-08T00:32:43.440Z,99106.69
2023-03-08T00:35:11.271Z,99101.72
2023-03-08T00:37:42.683Z,99108.25
2023-03-08T00:40:11.556Z,99108.25
2023-03-08T00:46:02.052Z,99099.75
2023-03-08T00:48:33.545Z,99100.09
2023-03-08T00:51:01.496Z,99093.84
2023-03-08T00:53:29.244Z,99086.84
2023-03-08T00:55:58.110Z,99094.81
2023-03-08T00:58:27.025Z,99102.97
2023-03-08T01:00:54.920Z,99099.31
2023-03-08T01:03:22.938Z,99092.34
2023-03-08T01:05:53.765Z,99097.56
2023-03-08T01:08:23.123Z,99096.91
2023-03-08T01:10:51.352Z,99100.81
2023-03-08T01:13:20.015Z,99096.97
2023-03-08T01:15:48.407Z,99100.72
2023-03-08T01:18:16.260Z,99095.19
2023-03-08T01:20:44.069Z,99090.19
2023-03-08T01:23:13.150Z,99095.09
2023-03-08T01:25:40.950Z,99087.81
2023-03-08T01:28:08.635Z,99096.75
2023-03-08T01:30:36.677Z,99084.25
2023-03-08T01:33:27.351Z,99084.88
2023-03-08T01:35:55.299Z,99082.63
2023-03-08T01:38:24.436Z,99076.88
2023-03-08T01:40:56.987Z,99083.09
2023-03-08T01:43:26.371Z,99078.59
2023-03-08T01:46:06.862Z,99074.94
2023-03-08T01:48:38.236Z,99073.38
2023-03-08T01:51:08.113Z,99069.44
2023-03-08T01:53:37.776Z,99074.47
2023-03-08T01:56:06.521Z,99062.31
2023-03-08T01:58:35.052Z,99056.13
2023-03-08T02:01:02.784Z,99058.91
2023-03-08T02:03:30.453Z,99055.75
2023-03-08T02:05:58.538Z,99056.38
2023-03-08T02:08:26.492Z,99046.84
2023-03-08T02:10:55.952Z,99047.31
2023-03-08T02:13:23.988Z,99044.00
2023-03-08T02:15:55.058Z,99050.53
2023-03-08T02:18:22.758Z,99037.50
2023-03-08T02:20:50.454Z,99043.19
2023-03-08T02:23:21.913Z,99040.53
2023-03-08T02:25:53.141Z,99030.53
2023-03-08T02:28:21.988Z,99029.25
2023-03-08T02:30:50.495Z,99031.31
2023-03-08T02:36:04.309Z,99032.63
2023-03-08T02:38:33.623Z,99026.06
2023-03-08T02:41:01.461Z,99016.72
2023-03-08T02:43:29.685Z,99026.63
2023-03-08T02:45:57.351Z,99019.91
2023-03-08T02:48:25.221Z,99007.41
2023-03-08T02:50:52.915Z,98999.66
2023-03-08T02:53:20.631Z,98999.88
2023-03-08T02:55:49.746Z,98994.59
2023-03-08T02:58:17.470Z,98991.13
2023-03-08T03:00:45.227Z,98991.84
2023-03-08T03:03:12.915Z,98985.75
2023-03-08T03:05:44.371Z,98989.78
2023-03-08T03:08:12.753Z,98987.34
2023-03-08T03:10:41.897Z,98989.94
2023-03-08T03:13:11.141Z,98991.16
2023-03-08T03:15:39.578Z,98996.75
2023-03-08T03:18:07.412Z,98994.50
2023-03-08T03:20:35.307Z,98999.16
2023-03-08T03:23:03.063Z,99001.13
2023-03-08T03:25:30.865Z,98988.50
2023-03-08T03:27:58.723Z,98982.88
2023-03-08T03:30:27.803Z,98983.63
2023-03-08T03:32:55.745Z,98980.75
2023-03-08T03:35:23.429Z,98979.16
2023-03-08T03:37:51.117Z,98981.66
2023-03-08T03:40:18.834Z,98989.31
2023-03-08T03:42:46.513Z,98994.25
2023-03-08T03:45:14.464Z,98999.53
2023-03-08T03:47:43.989Z,98986.47
2023-03-08T03:50:12.613Z,98991.03
2023-03-08T03:52:40.289Z,98995.44
2023-03-08T03:55:09.672Z,98993.09
2023-03-08T03:57:37.374Z,98989.44
2023-03-08T04:00:07.222Z,99000.00
2023-03-08T04:02:34.953Z,98994.28
2023-03-08T04:05:04.637Z,98999.09
2023-03-08T04:07:32.314Z,99000.34
2023-03-08T04:10:00.002Z,99001.09
2023-03-08T04:12:27.857Z,99010.91
2023-03-08T04:14:55.856Z,99006.84
2023-03-08T04:17:23.511Z,99005.22
2023-03-08T04:19:51.188Z,98991.41
2023-03-08T04:22:20.456Z,98992.34
2023-03-08T04:24:48.175Z,98986.50
2023-03-08T04:27:31.986Z,98973.47
2023-03-08T04:29:59.650Z,98977.72
2023-03-08T04:32:27.351Z,98967.22
2023-03-08T04:34:55.382Z,98965.91
2023-03-08T04:37:25.094Z,98955.94
2023-03-08T04:39:52.927Z,98944.19
2023-03-08T04:42:20.656Z,98942.84
2023-03-08T04:44:48.396Z,98948.13
2023-03-08T04:47:16.122Z,98939.22
2023-03-08T04:49:43.825Z,98937.84
2023-03-08T04:52:11.532Z,98936.81
2023-03-08T04:54:40.655Z,98939.72
2023-03-08T04:57:08.847Z,98935.97
2023-03-08T04:59:37.209Z,98937.72
2023-03-08T05:02:05.383Z,98938.03
2023-03-08T05:04:33.163Z,98938.53
2023-03-08T05:07:00.847Z,98931.22
2023-03-08T05:09:28.519Z,98922.69
2023-03-08T05:11:58.574Z,98920.19
2023-03-08T05:14:26.263Z,98922.69
2023-03-08T05:16:56.219Z,98908.63
2023-03-08T05:19:24.482Z,98917.72
2023-03-08T05:21:52.407Z,98906.72
2023-03-08T05:24:20.128Z,98897.84
2023-03-08T05:26:48.415Z,98896.41
2023-03-08T05:29:17.663Z,98889.69
2023-03-08T05:31:46.725Z,98888.09
2023-03-08T05:34:14.561Z,98878.28
2023-03-08T05:36:42.866Z,98884.34
2023-03-08T05:39:12.008Z,98879.34
2023-03-08T05:41:39.707Z,98873.88
2023-03-08T05:44:07.381Z,98869.22
2023-03-08T05:46:58.677Z,98873.09
2023-03-08T05:49:26.345Z,98866.53
2023-03-08T05:51:54.923Z,98861.72
2023-03-08T05:54:23.022Z,98864.97
2023-03-08T05:56:50.687Z,98853.78
2023-03-08T05:59:18.594Z,98849.75
2023-03-08T06:01:47.727Z,98844.47
2023-03-08T06:04:15.466Z,98835.34
2023-03-08T06:06:43.100Z,98837.16
2023-03-08T06:09:10.803Z,98842.66
2023-03-08T06:11:38.788Z,98835.94
2023-03-08T06:14:06.520Z,98838.16
2023-03-08T06:16:34.352Z,98835.28
2023-03-08T06:19:04.223Z,98836.66
2023-03-08T06:21:31.903Z,98837.53
2023-03-08T06:23:59.596Z,98834.16
2023-03-08T06:26:27.467Z,98832.97
2023-03-08T06:28:55.178Z,98828.72
2023-03-08T06:31:22.849Z,98822.41
2023-03-08T06:33:50.753Z,98826.88
2023-03-08T06:36:32.325Z,98818.56
2023-03-08T06:39:00.996Z,98816.28
2023-03-08T06:41:29.670Z,98805.34
2023-03-08T06:43:57.940Z,98800.09
2023-03-08T06:46:25.746Z,98801.50
2023-03-08T06:48:54.472Z,98791.16
2023-03-08T06:51:22.250Z,98792.97
2023-03-08T06:53:51.330Z,98782.84
2023-03-08T06:56:19.146Z,98776.53
2023-03-08T06:58:46.813Z,98780.22
2023-03-08T07:01:15.037Z,98781.81
2023-03-08T07:03:44.919Z,98776.75
2023-03-08T07:06:12.832Z,98777.16
2023-03-08T07:08:40.674Z,98770.19
2023-03-08T07:11:16.393Z,98774.09
2023-03-08T07:13:44.289Z,98772.50
2023-03-08T07:16:13.616Z,98773.91
2023-03-08T07:18:41.854Z,98767.38
2023-03-08T07:21:18.924Z,98767.16
2023-03-08T07:23:46.540Z,98769.22
2023-03-08T07:26:14.770Z,98772.44
2023-03-08T07:28:43.833Z,98767.81
2023-03-08T07:31:12.136Z,98765.75
2023-03-08T07:33:39.931Z,98763.28
2023-03-08T07:36:08.250Z,98763.50
2023-03-08T07:38:35.935Z,98759.03
2023-03-08T07:41:03.589Z,98763.88
2023-03-08T07:43:31.272Z,98763.06
2023-03-08T07:46:03.564Z,98754.53
2023-03-08T07:48:31.473Z,98763.09
2023-03-08T07:51:03.516Z,98757.97
2023-03-08T07:53:31.736Z,98753.28
2023-03-08T07:56:00.481Z,98756.50
2023-03-08T07:58:28.829Z,98752.88
2023-03-08T08:00:56.559Z,98761.22
2023-03-08T08:03:43.558Z,98758.16
2023-03-08T08:06:11.644Z,98745.38
2023-03-08T08:08:59.921Z,98744.53
2023-03-08T08:11:27.758Z,98743.28
2023-03-08T08:14:16.806Z,98742.97
2023-03-08T08:16:44.805Z,98742.69
2023-03-08T08:19:14.815Z,98739.34
2023-03-08T08:21:42.527Z,98734.28
2023-03-08T08:24:10.694Z,98731.91
2023-03-08T08:26:38.732Z,98731.25
2023-03-08T08:29:06.778Z,98726.19
2023-03-08T08:31:34.628Z,98734.75
2023-03-08T08:34:03.071Z,98724.50
2023-03-08T08:36:32.427Z,98729.13
2023-03-08T08:39:00.130Z,98716.41
2023-03-08T08:41:32.375Z,98710.94
2023-03-08T08:44:00.836Z,98710.69
2023-03-08T08:49:43.206Z,98703.47
2023-03-08T08:52:12.280Z,98706.41
2023-03-08T08:54:40.378Z,98700.47
2023-03-08T08:57:08.375Z,98693.53
2023-03-08T08:59:36.105Z,98685.78
2023-03-08T09:02:03.827Z,98689.13
2023-03-08T09:04:31.628Z,98692.69
2023-03-08T09:06:59.334Z,98695.09
2023-03-08T09:09:46.332Z,98685.81
2023-03-08T09:12:14.124Z,98674.72
2023-03-08T09:14:41.871Z,98671.75
2023-03-08T09:17:09.623Z,98675.88
2023-03-08T09:19:37.551Z,98665.81
2023-03-08T09:22:05.593Z,98668.03
2023-03-08T09:24:33.732Z,98663.91
2023-03-08T09:27:03.421Z,98658.91
2023-03-08T09:29:31.083Z,98659.69
2023-03-08T09:35:20.199Z,98658.88
2023-03-08T09:37:47.876Z,98647.88
2023-03-08T09:40:24.682Z,98646.88
2023-03-08T09:42:54.562Z,98633.84
2023-03-08T09:45:26.936Z,98644.28
2023-03-08T09:48:27.679Z,98642.88
2023-03-08T09:50:57.334Z,98634.94
2023-03-08T09:53:28.785Z,98629.66
2023-03-08T09:55:58.709Z,98633.59
2023-03-08T09:58:34.030Z,98631.72
2023-03-08T10:01:11.155Z,98633.59
2023-03-08T10:03:55.352Z,98622.03
2023-03-08T10:06:30.210Z,98614.34
2023-03-08T10:09:02.515Z,98619.66
2023-03-08T10:11:33.709Z,98618.38
2023-03-08T10:14:07.874Z,98600.72
2023-03-08T10:16:38.246Z,98597.91
2023-03-08T10:19:08.135Z,98593.72
2023-03-08T10:21:39.319Z,98596.06
2023-03-08T10:24:18.015Z,98593.50
2023-03-08T10:26:45.940Z,98594.06
2023-03-08T10:29:15.646Z,98592.44
2023-03-08T10:31:47.033Z,98583.31
2023-03-08T10:34:16.157Z,98586.53
2023-03-08T10:36:52.136Z,98598.88
2023-03-08T10:39:20.636Z,98586.31
2023-03-08T10:41:49.982Z,98592.25
2023-03-08T10:44:33.687Z,98586.47
2023-03-08T10:47:18.620Z,98579.84
2023-03-08T10:49:47.523Z,98587.28
2023-03-08T10:52:25.793Z,98586.75
2023-03-08T10:55:03.055Z,98565.69
2023-03-08T10:57:31.103Z,98586.44
2023-03-08T11:00:05.386Z,98580.28
2023-03-08T11:02:33.085Z,98560.09
2023-03-08T11:05:01.306Z,98559.53
2023-03-08T11:07:51.443Z,98569.25
2023-03-08T11:10:21.207Z,98569.56
2023-03-08T11:12:48.935Z,98563.81
2023-03-08T11:15:20.799Z,98564.66
2023-03-08T11:17:55.035Z,98572.38
2023-03-08T11:20:27.992Z,98576.78
2023-03-08T11:23:05.214Z,98580.13
2023-03-08T11:25:40.730Z,98593.09
2023-03-08T11:28:21.240Z,98592.19
2023-03-08T11:31:00.633Z,98578.94
2023-03-08T11:33:41.345Z,98569.97
2023-03-08T11:36:13.397Z,98573.09
2023-03-08T11:38:41.472Z,98566.00
2023-03-08T11:41:18.807Z,98556.41
2023-03-08T11:44:00.138Z,98549.38
2023-03-08T11:46:31.703Z,98542.19
2023-03-08T11:49:11.507Z,98541.09
2023-03-08T11:51:43.770Z,98545.72
2023-03-08T11:54:17.711Z,98534.22
2023-03-08T11:56:48.397Z,98529.06
2023-03-08T11:59:21.276Z,98528.63
2023-03-08T12:01:53.236Z,98524.47
2023-03-08T12:04:26.445Z,98535.06
2023-03-08T12:06:56.482Z,98530.94
2023-03-08T12:09:28.989Z,98531.03
2023-03-08T12:12:03.245Z,98535.25
2023-03-08T12:14:32.584Z,98526.91
2023-03-08T12:17:06.560Z,98511.59
2023-03-08T12:19:39.210Z,98510.56
2023-03-08T12:22:26.840Z,98515.50
2023-03-08T12:25:00.435Z,98505.50
2023-03-08T12:27:30.496Z,98510.88
2023-03-08T12:30:04.204Z,98511.22
2023-03-08T12:32:34.032Z,98507.63
2023-03-08T12:35:04.148Z,98510.22
2023-03-08T12:37:32.148Z,98508.31
2023-03-08T12:40:03.983Z,98498.56
2023-03-08T12:42:34.751Z,98500.88
2023-03-08T12:45:15.962Z,98499.59
2023-03-08T12:47:56.582Z,98495.53
2023-03-08T12:50:25.558Z,98500.72
2023-03-08T12:52:53.403Z,98498.88
2023-03-08T12:55:44.225Z,98486.56
2023-03-08T12:58:17.503Z,98492.31
2023-03-08T13:00:45.439Z,98504.56
2023-03-08T13:03:29.896Z,98508.47
2023-03-08T13:05:57.654Z,98508.19
2023-03-08T13:08:33.478Z,98511.28
2023-03-08T13:11:05.401Z,98508.41
2023-03-08T13:13:50.196Z,98505.84
2023-03-08T13:16:30.672Z,98501.63
2023-03-08T13:19:10.383Z,98484.75
2023-03-08T13:21:41.747Z,98494.50
2023-03-08T13:24:14.653Z,98505.28
2023-03-08T13:26:58.782Z,98489.78
2023-03-08T13:29:33.821Z,98475.44
2023-03-08T13:32:07.469Z,98468.06
2023-03-08T13:34:36.648Z,98469.13
2023-03-08T13:37:04.677Z,98470.06
2023-03-08T13:43:29.961Z,98462.00
2023-03-08T13:46:02.182Z,98454.03
2023-03-08T13:48:31.870Z,98452.63
2023-03-08T13:51:01.563Z,98440.84
2023-03-08T13:53:31.061Z,98447.53
2023-03-08T13:56:00.812Z,98447.44
2023-03-08T13:58:33.431Z,98444.66
2023-03-08T14:01:03.368Z,98437.41
2023-03-08T14:03:33.148Z,98429.06
2023-03-08T14:06:02.534Z,98437.00
2023-03-08T14:08:30.734Z,98428.97
2023-03-08T14:11:00.414Z,98432.28
2023-03-08T14:13:32.684Z,98424.31
2023-03-08T14:16:02.531Z,98411.38
2023-03-08T14:18:33.032Z,98412.50
2023-03-08T14:21:06.061Z,98418.81
2023-03-08T14:23:37.064Z,98402.19
2023-03-08T14:26:04.925Z,98406.81
2023-03-08T14:28:41.638Z,98385.88
2023-03-08T14:31:26.190Z,98392.97
2023-03-08T14:33:59.048Z,98400.69
2023-03-08T14:36:30.257Z,98389.41
2023-03-08T14:39:30.197Z,98395.09
2023-03-08T14:41:48.604Z,98404.44
2023-03-08T14:44:21.920Z,98406.56
2023-03-08T14:46:58.138Z,98396.28
2023-03-08T14:49:28.912Z,98386.78
2023-03-08T14:51:58.056Z,98387.59
2023-03-08T14:54:32.823Z,98389.13
2023-03-08T14:57:03.649Z,98396.75
2023-03-08T14:59:31.329Z,98402.06
2023-03-08T15:01:59.040Z,98404.75
2023-03-08T15:04:26.835Z,98401.50
2023-03-08T15:06:55.999Z,98405.91
2023-03-08T15:09:26.291Z,98400.25
2023-03-08T15:11:57.198Z,98401.03
2023-03-08T15:14:24.828Z,98409.22
2023-03-08T15:17:22.695Z,98421.38
2023-03-08T15:19:50.356Z,98414.53
2023-03-08T15:22:18.742Z,98414.84
2023-03-08T15:24:47.942Z,98414.13
2023-03-08T15:27:16.547Z,98419.84
2023-03-08T15:29:44.231Z,98411.13
2023-03-08T15:32:11.957Z,98417.28
2023-03-08T15:34:40.852Z,98403.25
2023-03-08T15:37:12.689Z,98386.63
2023-03-08T15:39:40.360Z,98393.47
2023-03-08T15:42:09.591Z,98383.59
2023-03-08T15:44:37.250Z,98380.00
2023-03-08T15:47:05.144Z,98378.31
2023-03-08T15:49:32.845Z,98382.44
2023-03-08T15:52:00.489Z,98387.50
2023-03-08T15:54:28.626Z,98387.50
2023-03-08T15:56:56.289Z,98383.53
2023-03-08T15:59:25.581Z,98401.59
2023-03-08T16:01:53.250Z,98394.34
2023-03-08T16:04:21.116Z,98395.94
2023-03-08T16:06:48.782Z,98401.22
2023-03-08T16:09:16.386Z,98402.69
2023-03-08T16:11:44.047Z,98395.47
2023-03-08T16:14:17.629Z,98407.84
2023-03-08T16:16:46.828Z,98413.56
2023-03-08T16:19:14.602Z,98404.75
2023-03-08T16:21:42.410Z,98408.06
2023-03-08T16:24:10.065Z,98409.25
2023-03-08T16:26:37.697Z,98415.63
2023-03-08T16:29:05.379Z,98415.41
2023-03-08T16:31:33.977Z,98407.63
2023-03-08T16:34:04.860Z,98413.59
2023-03-08T16:36:32.849Z,98417.88
2023-03-08T16:39:00.671Z,98415.88
2023-03-08T16:41:30.103Z,98415.22
2023-03-08T16:43:58.233Z,98414.31
2023-03-08T16:46:26.044Z,98411.69
2023-03-08T16:48:55.105Z,98417.94
2023-03-08T16:51:25.839Z,98413.66
2023-03-08T16:53:53.533Z,98409.69
2023-03-08T16:56:22.385Z,98410.66
2023-03-08T16:58:50.248Z,98399.75
2023-03-08T17:01:19.428Z,98392.31
2023-03-08T17:03:47.399Z,98392.72
2023-03-08T17:06:17.355Z,98386.56
2023-03-08T17:08:46.498Z,98382.72
2023-03-08T17:11:17.323Z,98386.81
2023-03-08T17:13:50.874Z,98386.75
2023-03-08T17:16:19.398Z,98390.47
2023-03-08T17:18:47.150Z,98378.88
2023-03-08T17:21:14.763Z,98384.56
2023-03-08T17:23:42.696Z,98390.25
2023-03-08T17:26:13.240Z,98397.03
2023-03-08T17:28:41.749Z,98391.91
2023-03-08T17:31:10.161Z,98387.81
2023-03-08T17:33:38.189Z,98382.53
2023-03-08T17:36:06.939Z,98384.97
2023-03-08T17:38:35.214Z,98379.72
2023-03-08T17:41:05.697Z,98377.09
2023-03-08T17:43:35.603Z,98370.44
2023-03-08T17:46:05.397Z,98376.47
2023-03-08T17:48:33.622Z,98380.53
2023-03-08T17:51:04.166Z,98376.88
2023-03-08T17:53:32.074Z,98382.94
2023-03-08T17:56:01.836Z,98373.00
2023-03-08T17:58:29.974Z,98384.34
2023-03-08T18:00:59.064Z,98379.66
2023-03-08T18:03:26.837Z,98377.69
2023-03-08T18:05:54.767Z,98378.97
2023-03-08T18:08:22.697Z,98381.94
2023-03-08T18:10:53.340Z,98378.88
2023-03-08T18:13:21.029Z,98380.75
2023-03-08T18:15:50.550Z,98374.28
2023-03-08T18:18:20.240Z,98375.66
2023-03-08T18:20:47.902Z,98380.13
2023-03-08T18:23:15.571Z,98378.88
2023-03-08T18:25:43.440Z,98382.94
2023-03-08T18:28:11.208Z,98374.38
2023-03-08T18:30:39.960Z,98380.84
2023-03-08T18:33:07.685Z,98378.38
2023-03-08T18:35:36.773Z,98372.66
2023-03-08T18:38:04.707Z,98376.84
2023-03-08T18:40:32.382Z,98382.97
2023-03-08T18:43:00.037Z,98389.03
2023-03-08T18:45:27.768Z,98388.63
2023-03-08T18:47:55.553Z,98385.78
2023-03-08T18:50:25.120Z,98382.16
2023-03-08T18:52:54.455Z,98390.25
2023-03-08T18:55:22.068Z,98380.22
2023-03-08T18:57:49.831Z,98372.75
2023-03-08T19:00:18.401Z,98371.06
2023-03-08T19:02:46.058Z,98368.00
2023-03-08T19:05:13.793Z,98370.13
2023-03-08T19:07:42.070Z,98363.94
2023-03-08T19:10:14.779Z,98356.06
2023-03-08T19:12:44.004Z,98357.34
2023-03-08T19:15:12.574Z,98365.09
2023-03-08T19:17:40.639Z,98365.84
2023-03-08T19:20:09.732Z,98355.72
2023-03-08T19:22:39.679Z,98349.59
2023-03-08T19:25:08.045Z,98339.69
2023-03-08T19:27:37.305Z,98338.88
2023-03-08T19:30:05.470Z,98332.19
2023-03-08T19:32:33.649Z,98338.53
2023-03-08T19:35:03.002Z,98332.19
2023-03-08T19:37:31.013Z,98330.97
2023-03-08T19:40:00.947Z,98334.91
2023-03-08T19:42:29.079Z,98322.09
2023-03-08T19:44:58.158Z,98321.03
2023-03-08T19:47:26.097Z,98318.31
2023-03-08T19:49:53.769Z,98329.72
2023-03-08T19:52:21.569Z,98319.72
2023-03-08T19:54:49.386Z,98327.00
2023-03-08T19:57:17.020Z,98345.50
2023-03-08T19:59:44.851Z,98338.59
2023-03-08T20:02:14.207Z,98345.50
2023-03-08T20:04:42.200Z,98342.25
2023-03-08T20:07:09.871Z,98343.72
2023-03-08T20:09:37.844Z,98346.38
2023-03-08T20:12:05.662Z,98345.50
2023-03-08T20:14:33.761Z,98340.19
2023-03-08T20:17:01.864Z,98324.69
2023-03-08T20:19:32.022Z,98323.94
2023-03-08T20:21:59.941Z,98318.66
2023-03-08T20:24:27.836Z,98309.97
2023-03-08T20:26:55.508Z,98309.91
2023-03-08T20:29:23.355Z,98310.91
2023-03-08T20:31:51.081Z,98315.84
2023-03-08T20:34:18.775Z,98319.63
2023-03-08T20:36:47.860Z,98321.53
2023-03-08T20:39:15.514Z,98320.53
2023-03-08T20:41:43.186Z,98315.38
2023-03-08T20:44:11.946Z,98319.41
2023-03-08T20:46:39.768Z,98317.97
2023-03-08T20:49:07.464Z,98316.50
2023-03-08T20:51:36.562Z,98327.13
2023-03-08T20:54:06.248Z,98316.06
2023-03-08T20:56:33.955Z,98325.44
2023-03-08T20:59:02.484Z,98310.63
2023-03-08T21:01:32.215Z,98312.88
2023-03-08T21:03:59.984Z,98319.78
2023-03-08T21:06:30.107Z,98310.06
2023-03-08T21:08:58.922Z,98308.56
2023-03-08T21:11:28.448Z,98314.94
2023-03-08T21:13:56.519Z,98307.84
2023-03-08T21:16:26.346Z,98294.56
2023-03-08T21:18:55.899Z,98296.22
2023-03-08T21:21:25.041Z,98289.03
2023-03-08T21:23:54.451Z,98287.97
2023-03-08T21:26:23.636Z,98280.94
2023-03-08T21:28:53.796Z,98277.09
2023-03-08T21:31:21.940Z,98273.53
2023-03-08T21:33:49.792Z,98279.41
2023-03-08T21:36:18.442Z,98270.47
2023-03-08T21:38:46.402Z,98268.84
2023-03-08T21:41:18.118Z,98266.84
2023-03-08T21:43:45.793Z,98261.06
2023-03-08T21:46:15.129Z,98249.69
2023-03-08T21:48:43.088Z,98251.50
2023-03-08T21:51:11.142Z,98255.13
2023-03-08T21:53:38.991Z,98264.03
2023-03-08T21:56:08.047Z,98263.69
2023-03-08T21:58:35.919Z,98269.56
2023-03-08T22:01:03.865Z,98270.91
2023-03-08T22:03:33.521Z,98272.78
2023-03-08T22:06:01.459Z,98274.41
2023-03-08T22:08:29.161Z,98275.34
2023-03-08T22:10:56.937Z,98265.72
2023-03-08T22:13:24.599Z,98255.78
2023-03-08T22:15:52.378Z,98254.78
2023-03-08T22:18:20.070Z,98250.94
2023-03-08T22:20:56.321Z,98242.56
2023-03-08T22:23:24.011Z,98234.03
2023-03-08T22:25:51.675Z,98229.63
2023-03-08T22:28:19.441Z,98238.63
2023-03-08T22:30:47.129Z,98253.81
2023-03-08T22:33:14.998Z,98250.31
2023-03-08T22:35:45.934Z,98248.22
2023-03-08T22:38:15.040Z,98248.28
2023-03-08T22:40:42.778Z,98260.00
2023-03-08T22:43:11.175Z,98249.88
2023-03-08T22:45:38.885Z,98242.03
2023-03-08T22:48:07.702Z,98239.78
2023-03-08T22:50:35.392Z,98231.69
2023-03-08T22:53:03.242Z,98232.28
2023-03-08T22:55:32.489Z,98218.44
2023-03-08T22:58:00.185Z,98214.13
2023-03-08T23:00:27.878Z,98208.53
2023-03-08T23:02:57.479Z,98198.72
2023-03-08T23:05:25.505Z,98199.53
2023-03-08T23:07:53.718Z,98199.53
2023-03-08T23:10:21.477Z,98201.53
2023-03-08T23:12:50.521Z,98190.41
2023-03-08T23:15:18.505Z,98199.31
2023-03-08T23:17:46.268Z,98201.09
2023-03-08T23:20:14.386Z,98193.84
2023-03-08T23:22:44.670Z,98184.44
2023-03-08T23:25:12.815Z,98175.56
2023-03-08T23:27:40.795Z,98175.03
2023-03-08T23:30:15.392Z,98175.97
2023-03-08T23:32:43.655Z,98179.41
2023-03-08T23:35:12.405Z,98174.28
2023-03-08T23:37:40.911Z,98170.16
2023-03-08T23:40:11.205Z,98169.84
2023-03-08T23:42:39.249Z,98167.63
2023-03-08T23:45:08.456Z,98165.75
2023-03-08T23:47:37.744Z,98162.91
2023-03-08T23:50:06.443Z,98158.44
2023-03-08T23:52:34.284Z,98164.19
2023-03-08T23:55:02.013Z,98163.88
2023-03-08T23:57:30.116Z,98164.44
2023-03-08T23:59:58.955Z,98162.91
